createdAt,value
2023-02-16T00:01:33.255Z,99043.25
2023-02-16T00:04:00.024Z,99033.47
2023-02-16T00:06:27.181Z,99036.22
2023-02-16T00:08:54.484Z,99035.63
2023-02-16T00:12:03.734Z,99039.75
2023-02-16T00:14:30.200Z,99037.28
2023-02-16T00:16:57.394Z,99043.84
2023-02-16T00:19:27.101Z,99039.19
2023-02-16T00:21:57.817Z,99033.97
2023-02-16T00:24:24.628Z,99038.13
2023-02-16T00:26:51.172Z,99039.44
2023-02-16T00:29:29.522Z,99032.31
2023-02-16T00:31:56.538Z,99028.25
2023-02-16T00:34:25.984Z,99032.31
2023-02-16T00:36:52.451Z,99035.06
2023-02-16T00:39:18.921Z,99027.94
2023-02-16T00:41:51.265Z,99030.72
2023-02-16T00:44:18.258Z,99028.53
2023-02-16T00:46:45.111Z,99030.19
2023-02-16T00:49:15.733Z,99026.09
2023-02-16T00:51:42.542Z,99021.47
2023-02-16T00:54:09.087Z,99017.63
2023-02-16T00:56:35.564Z,99011.09
2023-02-16T00:59:02.395Z,99008.91
2023-02-16T01:01:32.244Z,99002.09
2023-02-16T01:04:02.309Z,99005.38
2023-02-16T01:06:47.432Z,99000.19
2023-02-16T01:09:34.092Z,98995.53
2023-02-16T01:12:00.688Z,98993.88
2023-02-16T01:14:27.164Z,98986.50
2023-02-16T01:16:53.637Z,98994.97
2023-02-16T01:19:20.092Z,98984.81
2023-02-16T01:21:46.564Z,98983.84
2023-02-16T01:24:13.056Z,98983.56
2023-02-16T01:26:41.817Z,98978.97
2023-02-16T01:29:13.467Z,98983.84
2023-02-16T01:31:40.096Z,98971.03
2023-02-16T01:34:06.712Z,98972.13
2023-02-16T01:36:34.749Z,98968.03
2023-02-16T01:39:01.428Z,98968.31
2023-02-16T01:42:05.924Z,98969.69
2023-02-16T01:44:36.300Z,98969.16
2023-02-16T01:47:05.601Z,98967.56
2023-02-16T01:49:32.068Z,98979.88
2023-02-16T01:52:15.617Z,98971.97
2023-02-16T01:54:52.302Z,98967.47
2023-02-16T01:57:32.506Z,98960.94
2023-02-16T01:59:58.764Z,98961.78
2023-02-16T02:02:26.567Z,98965.94
2023-02-16T02:05:13.291Z,98958.78
2023-02-16T02:07:42.549Z,98954.63
2023-02-16T02:10:19.882Z,98960.72
2023-02-16T02:12:51.219Z,98953.06
2023-02-16T02:15:18.118Z,98961.84
2023-02-16T02:17:44.582Z,98966.22
2023-02-16T02:20:21.152Z,98957.75
2023-02-16T02:23:30.200Z,98957.75
2023-02-16T02:26:34.486Z,98953.88
2023-02-16T02:29:16.182Z,98966.72
2023-02-16T02:32:00.982Z,98963.25
2023-02-16T02:34:46.159Z,98946.31
2023-02-16T02:37:21.384Z,98937.28
2023-02-16T02:39:54.905Z,98944.38
2023-02-16T02:42:31.424Z,98951.47
2023-02-16T02:45:04.460Z,98950.38
2023-02-16T02:47:44.203Z,98953.09
2023-02-16T02:50:37.030Z,98959.13
2023-02-16T02:53:09.807Z,98951.72
2023-02-16T02:55:55.598Z,98952.59
2023-02-16T02:58:40.725Z,98952.34
2023-02-16T03:01:07.663Z,98938.16
2023-02-16T03:03:36.478Z,98954.00
2023-02-16T03:06:10.024Z,98957.53
2023-02-16T03:08:39.365Z,98951.25
2023-02-16T03:11:36.166Z,98949.06
2023-02-16T03:14:05.492Z,98956.19
2023-02-16T03:16:35.132Z,98961.09
2023-02-16T03:19:20.183Z,98969.00
2023-02-16T03:22:05.104Z,98956.94
2023-02-16T03:24:50.666Z,98962.97
2023-02-16T03:27:47.462Z,98971.19
2023-02-16T03:30:14.038Z,98971.44
2023-02-16T03:32:40.561Z,98970.84
2023-02-16T03:35:07.257Z,98983.06
2023-02-16T03:37:33.758Z,98978.69
2023-02-16T03:40:18.943Z,98978.97
2023-02-16T03:42:50.142Z,98976.03
2023-02-16T03:45:17.182Z,98981.19
2023-02-16T03:47:43.659Z,98986.13
2023-02-16T03:50:10.199Z,98991.84
2023-02-16T03:52:36.665Z,98992.34
2023-02-16T03:55:03.238Z,98997.78
2023-02-16T03:57:29.723Z,98999.91
2023-02-16T03:59:58.977Z,98994.41
2023-02-16T04:02:28.092Z,98990.34
2023-02-16T04:04:54.620Z,98998.34
2023-02-16T04:07:21.077Z,99002.78
2023-02-16T04:09:47.559Z,99011.47
2023-02-16T04:12:32.774Z,99009.34
2023-02-16T04:14:59.292Z,99011.00
2023-02-16T04:17:25.818Z,99005.72
2023-02-16T04:19:52.303Z,98999.94
2023-02-16T04:22:19.011Z,98998.63
2023-02-16T04:24:45.508Z,99004.16
2023-02-16T04:27:11.983Z,98989.88
2023-02-16T04:29:38.483Z,98990.75
2023-02-16T04:32:05.855Z,99001.44
2023-02-16T04:34:32.391Z,98996.56
2023-02-16T04:36:58.908Z,98988.34
2023-02-16T04:39:25.380Z,98983.66
2023-02-16T04:41:51.841Z,98983.19
2023-02-16T04:44:18.313Z,98982.88
2023-02-16T04:46:44.833Z,98974.69
2023-02-16T04:49:11.313Z,98973.91
2023-02-16T04:51:39.885Z,98979.31
2023-02-16T04:54:07.061Z,98978.50
2023-02-16T04:56:33.524Z,98970.88
2023-02-16T04:59:00.002Z,98968.38
2023-02-16T05:01:27.237Z,98967.59
2023-02-16T05:03:53.962Z,98972.25
2023-02-16T05:06:20.609Z,98970.34
2023-02-16T05:08:47.092Z,98967.88
2023-02-16T05:11:32.169Z,98965.94
2023-02-16T05:14:18.024Z,98963.50
2023-02-16T05:16:44.770Z,98970.28
2023-02-16T05:19:11.427Z,98969.25
2023-02-16T05:21:38.016Z,98970.59
2023-02-16T05:24:08.810Z,98969.50
2023-02-16T05:26:35.533Z,98971.09
2023-02-16T05:29:02.066Z,98960.19
2023-02-16T05:31:29.071Z,98961.53
2023-02-16T05:33:55.758Z,98967.53
2023-02-16T05:36:22.397Z,98954.47
2023-02-16T05:38:48.888Z,98970.59
2023-02-16T05:41:23.495Z,98973.88
2023-02-16T05:43:54.213Z,98962.66
2023-02-16T05:46:21.652Z,98964.28
2023-02-16T05:48:48.211Z,98965.97
2023-02-16T05:51:14.739Z,98967.88
2023-02-16T05:53:41.309Z,98965.97
2023-02-16T05:56:07.816Z,98969.53
2023-02-16T05:58:34.339Z,98956.63
2023-02-16T06:01:01.138Z,98958.03
2023-02-16T06:03:27.781Z,98966.25
2023-02-16T06:05:55.254Z,98972.56
2023-02-16T06:08:21.722Z,98971.19
2023-02-16T06:10:51.619Z,98965.47
2023-02-16T06:13:18.133Z,98964.31
2023-02-16T06:15:44.718Z,98962.72
2023-02-16T06:18:11.593Z,98953.41
2023-02-16T06:20:38.786Z,98950.41
2023-02-16T06:23:06.438Z,98947.69
2023-02-16T06:25:32.966Z,98943.31
2023-02-16T06:27:59.449Z,98958.06
2023-02-16T06:30:26.481Z,98941.97
2023-02-16T06:32:52.968Z,98943.63
2023-02-16T06:35:20.008Z,98941.97
2023-02-16T06:37:46.490Z,98943.34
2023-02-16T06:40:17.367Z,98944.44
2023-02-16T06:42:44.138Z,98935.66
2023-02-16T06:45:10.607Z,98944.72
2023-02-16T06:47:37.457Z,98935.66
2023-02-16T06:50:05.396Z,98934.59
2023-02-16T06:52:31.914Z,98940.59
2023-02-16T06:54:58.728Z,98937.34
2023-02-16T06:57:25.213Z,98939.50
2023-02-16T06:59:51.716Z,98945.25
2023-02-16T07:02:18.207Z,98947.97
2023-02-16T07:04:44.937Z,98951.50
2023-02-16T07:07:11.421Z,98968.94
2023-02-16T07:09:37.910Z,98969.22
2023-02-16T07:12:04.964Z,98974.38
2023-02-16T07:14:31.794Z,98978.72
2023-02-16T07:17:00.240Z,98973.28
2023-02-16T07:19:26.907Z,98984.75
2023-02-16T07:21:55.197Z,98989.91
2023-02-16T07:24:21.977Z,98982.81
2023-02-16T07:26:49.358Z,98992.63
2023-02-16T07:29:15.837Z,98991.28
2023-02-16T07:31:42.474Z,98987.47
2023-02-16T07:34:09.070Z,98994.34
2023-02-16T07:36:35.577Z,99002.28
2023-02-16T07:39:02.084Z,99005.00
2023-02-16T07:41:28.563Z,99013.50
2023-02-16T07:43:55.104Z,98998.78
2023-02-16T07:46:21.577Z,99005.06
2023-02-16T07:48:48.998Z,99008.91
2023-02-16T07:51:23.108Z,98996.09
2023-02-16T07:53:49.628Z,99004.81
2023-02-16T07:56:29.081Z,98994.19
2023-02-16T07:58:56.239Z,98991.69
2023-02-16T08:01:25.606Z,98985.72
2023-02-16T08:03:59.918Z,98986.78
2023-02-16T08:06:26.998Z,98983.78
2023-02-16T08:08:53.528Z,98983.78
2023-02-16T08:11:24.329Z,98985.69
2023-02-16T08:13:50.859Z,98984.56
2023-02-16T08:16:25.683Z,98987.31
2023-02-16T08:18:52.381Z,98984.56
2023-02-16T08:21:23.552Z,98982.91
2023-02-16T08:23:58.212Z,98979.34
2023-02-16T08:26:26.918Z,98971.16
2023-02-16T08:28:53.691Z,98959.34
2023-02-16T08:31:21.435Z,98946.25
2023-02-16T08:33:48.061Z,98949.47
2023-02-16T08:36:19.249Z,98952.44
2023-02-16T08:38:45.858Z,98948.41
2023-02-16T08:41:12.339Z,98945.38
2023-02-16T08:43:38.832Z,98938.78
2023-02-16T08:46:08.096Z,98942.81
2023-02-16T08:48:35.612Z,98940.84
2023-02-16T08:51:03.207Z,98929.00
2023-02-16T08:53:33.885Z,98928.44
2023-02-16T08:56:03.216Z,98922.66
2023-02-16T08:58:30.704Z,98930.56
2023-02-16T09:00:57.385Z,98937.66
2023-02-16T09:03:24.692Z,98938.22
2023-02-16T09:05:52.846Z,98930.63
2023-02-16T09:08:19.577Z,98927.44
2023-02-16T09:10:46.049Z,98923.97
2023-02-16T09:13:15.947Z,98927.81
2023-02-16T09:15:43.351Z,98930.06
2023-02-16T09:18:10.910Z,98929.25
2023-02-16T09:20:39.290Z,98925.47
2023-02-16T09:23:06.308Z,98935.00
2023-02-16T09:25:39.592Z,98945.13
2023-02-16T09:28:06.451Z,98948.13
2023-02-16T09:30:33.134Z,98961.75
2023-02-16T09:33:00.098Z,98960.88
2023-02-16T09:35:26.697Z,98954.00
2023-02-16T09:37:53.922Z,98954.81
2023-02-16T09:40:20.932Z,98952.06
2023-02-16T09:43:02.847Z,98955.56
2023-02-16T09:45:29.765Z,98947.34
2023-02-16T09:47:56.586Z,98945.66
2023-02-16T09:50:52.197Z,98951.69
2023-02-16T09:53:29.823Z,98936.84
2023-02-16T09:56:03.236Z,98938.22
2023-02-16T09:58:47.967Z,98937.91
2023-02-16T10:01:24.663Z,98939.28
2023-02-16T10:03:55.716Z,98932.88
2023-02-16T10:06:36.588Z,98924.72
2023-02-16T10:09:08.177Z,98927.81
2023-02-16T10:11:51.438Z,98921.44
2023-02-16T10:14:32.485Z,98921.63
2023-02-16T10:17:12.450Z,98927.28
2023-02-16T10:19:57.580Z,98924.41
2023-02-16T10:22:31.205Z,98910.25
2023-02-16T10:24:59.248Z,98907.69
2023-02-16T10:27:26.835Z,98914.06
2023-02-16T10:29:53.407Z,98925.78
2023-02-16T10:32:23.244Z,98927.91
2023-02-16T10:34:51.002Z,98924.69
2023-02-16T10:37:53.023Z,98926.63
2023-02-16T10:40:36.746Z,98930.88
2023-02-16T10:43:24.377Z,98935.38
2023-02-16T10:45:54.920Z,98932.28
2023-02-16T10:48:21.730Z,98924.81
2023-02-16T10:51:01.239Z,98926.97
2023-02-16T10:53:38.017Z,98931.97
2023-02-16T10:56:43.465Z,98925.84
2023-02-16T10:59:42.225Z,98921.38
2023-02-16T11:02:17.030Z,98926.72
2023-02-16T11:04:44.799Z,98937.94
2023-02-16T11:07:18.799Z,98924.16
2023-02-16T11:09:46.957Z,98926.78
2023-02-16T11:12:23.477Z,98919.28
2023-02-16T11:14:51.480Z,98919.09
2023-02-16T11:17:18.601Z,98913.88
2023-02-16T11:20:05.791Z,98913.88
2023-02-16T11:22:37.280Z,98902.75
2023-02-16T11:25:25.168Z,98913.28
2023-02-16T11:28:08.212Z,98906.69
2023-02-16T11:30:36.386Z,98903.38
2023-02-16T11:33:04.692Z,98899.81
2023-02-16T11:35:32.829Z,98907.00
2023-02-16T11:37:59.847Z,98899.84
2023-02-16T11:40:28.872Z,98891.59
2023-02-16T11:42:57.372Z,98897.44
2023-02-16T11:45:34.581Z,98901.25
2023-02-16T11:48:03.409Z,98886.28
2023-02-16T11:50:31.633Z,98890.63
2023-02-16T11:53:25.241Z,98887.84
2023-02-16T11:55:52.986Z,98882.56
2023-02-16T11:58:27.474Z,98874.97
2023-02-16T12:01:12.118Z,98877.56
2023-02-16T12:04:12.828Z,98872.06
2023-02-16T12:06:43.184Z,98881.44
2023-02-16T12:09:19.685Z,98877.47
2023-02-16T12:11:45.984Z,98878.78
2023-02-16T12:14:37.331Z,98864.53
2023-02-16T12:17:17.335Z,98870.38
2023-02-16T12:19:48.760Z,98867.47
2023-02-16T12:22:42.435Z,98869.59
2023-02-16T12:25:40.447Z,98872.19
2023-02-16T12:28:23.208Z,98872.34
2023-02-16T12:31:28.738Z,98879.28
2023-02-16T12:37:03.563Z,98865.97
2023-02-16T12:39:33.334Z,98862.97
2023-02-16T12:42:24.677Z,98852.50
2023-02-16T12:44:53.775Z,98847.72
2023-02-16T12:47:32.845Z,98851.06
2023-02-16T12:50:22.511Z,98835.31
2023-02-16T12:52:53.173Z,98848.38
2023-02-16T12:55:56.600Z,98838.56
2023-02-16T12:58:37.778Z,98837.75
2023-02-16T13:01:18.873Z,98845.72
2023-02-16T13:04:18.522Z,98844.19
2023-02-16T13:07:02.918Z,98830.50
2023-02-16T13:09:44.212Z,98828.56
2023-02-16T13:12:37.117Z,98838.78
2023-02-16T13:15:23.465Z,98826.09
2023-02-16T13:17:57.845Z,98831.72
2023-02-16T13:20:24.428Z,98817.34
2023-02-16T13:23:02.465Z,98817.22
2023-02-16T13:25:53.768Z,98809.81
2023-02-16T13:28:32.998Z,98817.59
2023-02-16T13:31:04.701Z,98814.72
2023-02-16T13:33:44.159Z,98817.84
2023-02-16T13:36:39.021Z,98815.41
2023-02-16T13:39:23.795Z,98807.84
2023-02-16T13:42:02.294Z,98801.22
2023-02-16T13:44:35.576Z,98790.38
2023-02-16T13:47:02.233Z,98789.38
2023-02-16T13:49:42.444Z,98788.88
2023-02-16T13:52:10.607Z,98785.91
2023-02-16T13:54:40.471Z,98783.00
2023-02-16T13:57:13.947Z,98777.97
2023-02-16T13:59:40.445Z,98776.50
2023-02-16T14:02:13.194Z,98774.72
2023-02-16T14:04:39.662Z,98776.84
2023-02-16T14:07:09.673Z,98757.34
2023-02-16T14:09:38.821Z,98770.19
2023-02-16T14:12:11.606Z,98763.38
2023-02-16T14:14:43.952Z,98765.13
2023-02-16T14:17:19.560Z,98758.47
2023-02-16T14:20:25.872Z,98762.38
2023-02-16T14:22:53.649Z,98759.78
2023-02-16T14:25:20.253Z,98742.38
2023-02-16T14:27:54.497Z,98733.59
2023-02-16T14:30:35.476Z,98729.38
2023-02-16T14:33:17.354Z,98725.31
2023-02-16T14:36:04.336Z,98727.91
2023-02-16T14:38:37.740Z,98723.84
2023-02-16T14:41:06.405Z,98713.59
2023-02-16T14:43:42.565Z,98705.94
2023-02-16T14:46:20.923Z,98711.97
2023-02-16T14:49:13.070Z,98715.22
2023-02-16T14:51:57.051Z,98724.19
2023-02-16T14:54:55.957Z,98711.34
2023-02-16T14:57:31.510Z,98716.53
2023-02-16T15:00:23.587Z,98720.25
2023-02-16T15:02:56.040Z,98729.69
2023-02-16T15:05:32.409Z,98746.47
2023-02-16T15:08:09.456Z,98754.75
2023-02-16T15:10:37.229Z,98753.75
2023-02-16T15:13:03.728Z,98749.69
2023-02-16T15:15:45.131Z,98752.94
2023-02-16T15:18:16.344Z,98757.97
2023-02-16T15:20:43.913Z,98748.75
2023-02-16T15:23:21.548Z,98748.41
2023-02-16T15:25:59.314Z,98744.16
2023-02-16T15:28:27.936Z,98742.50
2023-02-16T15:30:56.538Z,98742.78
2023-02-16T15:33:23.049Z,98741.66
2023-02-16T15:35:59.187Z,98745.38
2023-02-16T15:38:26.882Z,98748.91
2023-02-16T15:40:57.380Z,98741.25
2023-02-16T15:43:33.033Z,98734.91
2023-02-16T15:46:01.013Z,98743.00
2023-02-16T15:48:34.858Z,98747.16
2023-02-16T15:51:06.945Z,98741.78
2023-02-16T15:53:36.856Z,98745.50
2023-02-16T15:56:05.635Z,98741.75
2023-02-16T15:58:32.904Z,98731.41
2023-02-16T16:01:00.466Z,98731.56
2023-02-16T16:03:26.953Z,98736.03
2023-02-16T16:05:58.165Z,98742.03
2023-02-16T16:08:25.516Z,98741.06
2023-02-16T16:10:52.064Z,98748.16
2023-02-16T16:13:20.632Z,98748.16
2023-02-16T16:15:48.771Z,98749.81
2023-02-16T16:18:40.440Z,98750.63
2023-02-16T16:21:18.162Z,98744.22
2023-02-16T16:23:57.974Z,98738.41
2023-02-16T16:26:24.478Z,98739.28
2023-02-16T16:28:51.524Z,98746.44
2023-02-16T16:31:21.075Z,98747.88
2023-02-16T16:33:58.719Z,98750.75
2023-02-16T16:36:40.329Z,98748.69
2023-02-16T16:39:16.790Z,98751.69
2023-02-16T16:41:55.361Z,98755.41
2023-02-16T16:44:39.092Z,98754.59
2023-02-16T16:47:31.541Z,98765.53
2023-02-16T16:50:05.147Z,98772.31
2023-02-16T16:52:33.567Z,98760.66
2023-02-16T16:55:00.050Z,98764.53
2023-02-16T16:57:26.554Z,98768.25
2023-02-16T16:59:53.119Z,98765.28
2023-02-16T17:02:19.592Z,98765.19
2023-02-16T17:04:46.085Z,98763.38
2023-02-16T17:07:12.569Z,98758.69
2023-02-16T17:09:39.301Z,98757.69
2023-02-16T17:12:06.154Z,98757.97
2023-02-16T17:14:32.643Z,98758.59
2023-02-16T17:16:59.391Z,98758.28
2023-02-16T17:19:29.326Z,98754.72
2023-02-16T17:21:55.843Z,98749.91
2023-02-16T17:24:22.370Z,98752.06
2023-02-16T17:26:50.061Z,98741.19
2023-02-16T17:29:19.805Z,98747.00
2023-02-16T17:31:46.437Z,98746.72
2023-02-16T17:34:13.415Z,98734.06
2023-02-16T17:36:40.134Z,98734.53
2023-02-16T17:39:08.331Z,98730.56
2023-02-16T17:41:34.800Z,98720.28
2023-02-16T17:44:01.351Z,98723.72
2023-02-16T17:46:28.627Z,98722.22
2023-02-16T17:48:55.306Z,98710.81
2023-02-16T17:51:23.516Z,98711.53
2023-02-16T17:53:50.003Z,98707.66
2023-02-16T17:56:17.737Z,98705.47
2023-02-16T17:58:44.723Z,98707.91
2023-02-16T18:01:13.101Z,98704.75
2023-02-16T18:03:39.604Z,98702.59
2023-02-16T18:06:06.724Z,98698.44
2023-02-16T18:08:33.689Z,98696.88
2023-02-16T18:11:02.096Z,98706.31
2023-02-16T18:13:29.328Z,98703.31
2023-02-16T18:15:55.859Z,98699.50
2023-02-16T18:18:22.332Z,98696.22
2023-02-16T18:20:48.807Z,98694.50
2023-02-16T18:23:15.374Z,98697.41
2023-02-16T18:25:43.894Z,98699.84
2023-02-16T18:28:14.689Z,98706.53
2023-02-16T18:30:41.609Z,98703.69
2023-02-16T18:33:08.441Z,98698.28
2023-02-16T18:35:34.907Z,98700.94
2023-02-16T18:38:01.378Z,98690.03
2023-02-16T18:40:27.876Z,98683.84
2023-02-16T18:42:54.603Z,98687.31
2023-02-16T18:45:21.085Z,98686.50
2023-02-16T18:47:48.023Z,98683.25
2023-02-16T18:50:17.954Z,98682.81
2023-02-16T18:52:47.690Z,98683.69
2023-02-16T18:55:15.646Z,98674.16
2023-02-16T18:57:42.472Z,98669.94
2023-02-16T19:00:10.246Z,98663.63
2023-02-16T19:02:37.704Z,98673.00
2023-02-16T19:05:04.712Z,98667.50
2023-02-16T19:07:32.113Z,98666.25
2023-02-16T19:09:58.713Z,98654.84
2023-02-16T19:12:25.607Z,98658.66
2023-02-16T19:14:52.073Z,98661.41
2023-02-16T19:17:23.444Z,98651.84
2023-02-16T19:19:49.980Z,98659.97
2023-02-16T19:22:16.507Z,98663.03
2023-02-16T19:24:43.004Z,98656.81
2023-02-16T19:27:09.813Z,98644.41
2023-02-16T19:29:36.306Z,98645.31
2023-02-16T19:32:02.866Z,98641.91
2023-02-16T19:34:29.371Z,98645.72
2023-02-16T19:36:55.853Z,98644.69
2023-02-16T19:39:22.554Z,98630.44
2023-02-16T19:41:49.047Z,98641.44
2023-02-16T19:44:15.571Z,98641.13
2023-02-16T19:46:42.142Z,98640.13
2023-02-16T19:49:08.729Z,98636.38
2023-02-16T19:51:35.278Z,98634.53
2023-02-16T19:54:02.399Z,98631.34
2023-02-16T19:56:28.906Z,98630.97
2023-02-16T19:58:57.199Z,98645.84
2023-02-16T20:01:24.555Z,98631.69
2023-02-16T20:03:51.653Z,98633.94
2023-02-16T20:06:27.132Z,98635.25
2023-02-16T20:08:54.209Z,98631.88
2023-02-16T20:11:21.707Z,98633.94
2023-02-16T20:13:48.406Z,98639.34
2023-02-16T20:16:15.640Z,98639.44
2023-02-16T20:18:42.207Z,98644.44
2023-02-16T20:21:11.248Z,98636.09
2023-02-16T20:23:37.745Z,98628.97
2023-02-16T20:26:06.328Z,98639.44
2023-02-16T20:28:33.020Z,98636.38
2023-02-16T20:30:59.515Z,98636.38
2023-02-16T20:33:26.122Z,98630.59
2023-02-16T20:35:52.902Z,98628.66
2023-02-16T20:38:19.357Z,98626.72
2023-02-16T20:40:45.850Z,98628.66
2023-02-16T20:43:13.291Z,98634.66
2023-02-16T20:45:42.311Z,98630.88
2023-02-16T20:48:09.362Z,98630.81
2023-02-16T20:50:36.306Z,98642.13
2023-02-16T20:53:02.780Z,98648.00
2023-02-16T20:55:29.568Z,98647.91
2023-02-16T20:57:56.192Z,98647.19
2023-02-16T21:00:24.031Z,98646.88
2023-02-16T21:02:50.711Z,98648.41
2023-02-16T21:05:17.392Z,98640.38
2023-02-16T21:07:43.874Z,98636.00
2023-02-16T21:10:11.088Z,98625.00
2023-02-16T21:12:37.554Z,98629.69
2023-02-16T21:15:04.622Z,98631.91
2023-02-16T21:17:31.152Z,98647.69
2023-02-16T21:19:57.771Z,98637.00
2023-02-16T21:22:27.343Z,98632.94
2023-02-16T21:24:54.258Z,98643.63
2023-02-16T21:27:20.873Z,98643.28
2023-02-16T21:29:47.365Z,98650.63
2023-02-16T21:32:13.973Z,98660.94
2023-02-16T21:34:40.508Z,98656.94
2023-02-16T21:37:07.303Z,98651.75
2023-02-16T21:39:52.511Z,98664.28
2023-02-16T21:42:18.998Z,98656.84
2023-02-16T21:44:49.920Z,98659.09
2023-02-16T21:47:35.422Z,98657.56
2023-02-16T21:50:01.894Z,98663.06
2023-02-16T21:52:28.378Z,98660.50
2023-02-16T21:55:13.792Z,98661.44
2023-02-16T21:57:40.298Z,98655.31
2023-02-16T22:00:10.427Z,98656.91
2023-02-16T22:02:36.997Z,98662.72
2023-02-16T22:05:03.493Z,98665.78
2023-02-16T22:07:29.982Z,98661.91
2023-02-16T22:09:56.510Z,98663.25
2023-02-16T22:12:23.058Z,98657.84
2023-02-16T22:14:49.632Z,98653.47
2023-02-16T22:17:16.132Z,98656.53
2023-02-16T22:19:42.608Z,98656.09
2023-02-16T22:22:09.754Z,98654.38
2023-02-16T22:24:38.341Z,98657.44
2023-02-16T22:27:04.964Z,98653.31
2023-02-16T22:29:31.501Z,98656.19
2023-02-16T22:31:58.053Z,98656.06
2023-02-16T22:34:24.544Z,98654.75
2023-02-16T22:36:51.040Z,98659.44
2023-02-16T22:39:17.848Z,98658.91
2023-02-16T22:41:44.354Z,98650.97
2023-02-16T22:44:11.402Z,98644.97
2023-02-16T22:46:37.907Z,98653.72
2023-02-16T22:49:04.360Z,98655.34
2023-02-16T22:51:30.946Z,98657.28
2023-02-16T22:53:57.995Z,98658.72
2023-02-16T22:56:26.763Z,98667.78
2023-02-16T22:58:54.215Z,98671.09
2023-02-16T23:01:22.174Z,98680.69
2023-02-16T23:03:53.430Z,98679.56
2023-02-16T23:06:21.484Z,98681.50
2023-02-16T23:08:52.123Z,98678.13
2023-02-16T23:11:18.721Z,98692.72
2023-02-16T23:13:45.446Z,98682.88
2023-02-16T23:16:13.884Z,98684.34
2023-02-16T23:18:41.108Z,98671.81
2023-02-16T23:21:30.807Z,98681.09
2023-02-16T23:23:57.642Z,98672.38
2023-02-16T23:26:25.311Z,98678.19
2023-02-16T23:28:52.786Z,98684.09
2023-02-16T23:31:19.354Z,98683.41
2023-02-16T23:33:45.923Z,98683.09
2023-02-16T23:36:12.386Z,98675.72
2023-02-16T23:38:38.847Z,98672.66
2023-02-16T23:41:07.028Z,98675.91
2023-02-16T23:43:33.530Z,98674.75
2023-02-16T23:46:00.287Z,98672.81
2023-02-16T23:48:26.790Z,98666.69
2023-02-16T23:50:53.366Z,98671.09
2023-02-16T23:53:20.502Z,98671.28
2023-02-16T23:56:22.905Z,98670.34
2023-02-16T23:58:49.476Z,98680.25
